sensor_id;sensor_type;location;lat;lon;timestamp;P1;durP1;ratioP1;P2;durP2;ratioP2
22219;SDS011;11279;48.364;10.904;2023-11-19T00:00:54;3.33;;;1.67;;
22219;SDS011;11279;48.364;10.904;2023-11-19T00:01:54;3.20;;;2.33;;
22219;SDS011;11279;48.364;10.904;2023-11-19T00:02:55;3.70;;;2.37;;
22219;SDS011;11279;48.364;10.904;2023-11-19T00:03:55;4.67;;;2.30;;
22219;SDS011;11279;48.364;10.904;2023-11-19T00:04:55;4.17;;;2.43;;
22219;SDS011;11279;48.364;10.904;2023-11-19T00:05:56;3.60;;;2.10;;
22219;SDS011;11279;48.364;10.904;2023-11-19T00:06:57;4.97;;;2.70;;
22219;SDS011;11279;48.364;10.904;2023-11-19T00:08:02;7.50;;;2.40;;
22219;SDS011;11279;48.364;10.904;2023-11-19T00:09:03;4.47;;;2.40;;
22219;SDS011;11279;48.364;10.904;2023-11-19T00:10:04;3.72;;;2.30;;
22219;SDS011;11279;48.364;10.904;2023-11-19T00:11:06;4.13;;;2.13;;
22219;SDS011;11279;48.364;10.904;2023-11-19T00:12:07;3.67;;;2.50;;
22219;SDS011;11279;48.364;10.904;2023-11-19T00:13:07;3.90;;;2.30;;
22219;SDS011;11279;48.364;10.904;2023-11-19T00:14:08;3.83;;;2.10;;
22219;SDS011;11279;48.364;10.904;2023-11-19T00:15:08;3.80;;;2.00;;
22219;SDS011;11279;48.364;10.904;2023-11-19T00:16:11;3.08;;;2.03;;
22219;SDS011;11279;48.364;10.904;2023-11-19T00:17:12;5.43;;;2.20;;
22219;SDS011;11279;48.364;10.904;2023-11-19T00:18:13;4.90;;;2.37;;
22219;SDS011;11279;48.364;10.904;2023-11-19T00:19:14;4.35;;;2.10;;
22219;SDS011;11279;48.364;10.904;2023-11-19T00:20:15;2.83;;;2.10;;
22219;SDS011;11279;48.364;10.904;2023-11-19T00:21:16;4.45;;;2.60;;
22219;SDS011;11279;48.364;10.904;2023-11-19T00:22:17;5.87;;;2.40;;
22219;SDS011;11279;48.364;10.904;2023-11-19T00:23:17;4.87;;;2.33;;
22219;SDS011;11279;48.364;10.904;2023-11-19T00:24:19;2.75;;;2.00;;
22219;SDS011;11279;48.364;10.904;2023-11-19T00:25:20;3.50;;;2.13;;
22219;SDS011;11279;48.364;10.904;2023-11-19T00:26:24;2.47;;;1.92;;
22219;SDS011;11279;48.364;10.904;2023-11-19T00:27:24;3.07;;;2.33;;
22219;SDS011;11279;48.364;10.904;2023-11-19T00:28:25;2.93;;;1.90;;
22219;SDS011;11279;48.364;10.904;2023-11-19T00:29:25;4.07;;;2.50;;
22219;SDS011;11279;48.364;10.904;2023-11-19T00:30:26;3.20;;;2.40;;
22219;SDS011;11279;48.364;10.904;2023-11-19T00:31:26;5.03;;;2.40;;
22219;SDS011;11279;48.364;10.904;2023-11-19T00:32:28;3.47;;;2.28;;
22219;SDS011;11279;48.364;10.904;2023-11-19T00:33:28;3.60;;;2.03;;
22219;SDS011;11279;48.364;10.904;2023-11-19T00:34:29;3.42;;;2.05;;
22219;SDS011;11279;48.364;10.904;2023-11-19T00:35:29;4.03;;;2.50;;
22219;SDS011;11279;48.364;10.904;2023-11-19T00:36:31;3.67;;;2.28;;
22219;SDS011;11279;48.364;10.904;2023-11-19T00:37:32;3.50;;;2.20;;
22219;SDS011;11279;48.364;10.904;2023-11-19T00:38:33;4.27;;;2.20;;
22219;SDS011;11279;48.364;10.904;2023-11-19T00:39:33;4.17;;;2.50;;
22219;SDS011;11279;48.364;10.904;2023-11-19T00:40:33;3.57;;;2.20;;
22219;SDS011;11279;48.364;10.904;2023-11-19T00:41:34;4.60;;;2.10;;
22219;SDS011;11279;48.364;10.904;2023-11-19T00:42:34;6.37;;;2.77;;
22219;SDS011;11279;48.364;10.904;2023-11-19T00:43:35;3.20;;;2.10;;
22219;SDS011;11279;48.364;10.904;2023-11-19T00:44:35;4.40;;;2.37;;
22219;SDS011;11279;48.364;10.904;2023-11-19T00:45:36;3.40;;;2.23;;
22219;SDS011;11279;48.364;10.904;2023-11-19T00:46:36;3.37;;;2.43;;
22219;SDS011;11279;48.364;10.904;2023-11-19T00:47:37;3.90;;;2.33;;
22219;SDS011;11279;48.364;10.904;2023-11-19T00:48:37;3.07;;;2.13;;
22219;SDS011;11279;48.364;10.904;2023-11-19T00:49:38;3.93;;;2.30;;
22219;SDS011;11279;48.364;10.904;2023-11-19T00:50:38;3.87;;;2.33;;
22219;SDS011;11279;48.364;10.904;2023-11-19T00:51:42;3.38;;;2.25;;
22219;SDS011;11279;48.364;10.904;2023-11-19T00:52:42;2.83;;;2.10;;
22219;SDS011;11279;48.364;10.904;2023-11-19T00:53:43;2.93;;;2.10;;
22219;SDS011;11279;48.364;10.904;2023-11-19T00:54:43;2.77;;;2.17;;
22219;SDS011;11279;48.364;10.904;2023-11-19T00:55:44;4.27;;;2.27;;
22219;SDS011;11279;48.364;10.904;2023-11-19T00:56:44;3.57;;;2.10;;
22219;SDS011;11279;48.364;10.904;2023-11-19T00:57:44;5.13;;;2.40;;
22219;SDS011;11279;48.364;10.904;2023-11-19T00:58:45;3.00;;;2.20;;
22219;SDS011;11279;48.364;10.904;2023-11-19T00:59:45;5.63;;;2.20;;
22219;SDS011;11279;48.364;10.904;2023-11-19T01:00:47;5.10;;;2.38;;
22219;SDS011;11279;48.364;10.904;2023-11-19T01:01:47;5.60;;;2.40;;
22219;SDS011;11279;48.364;10.904;2023-11-19T01:02:48;3.87;;;2.30;;
22219;SDS011;11279;48.364;10.904;2023-11-19T01:03:50;3.67;;;2.05;;
22219;SDS011;11279;48.364;10.904;2023-11-19T01:04:50;2.67;;;1.90;;
22219;SDS011;11279;48.364;10.904;2023-11-19T01:05:51;4.00;;;1.67;;
22219;SDS011;11279;48.364;10.904;2023-11-19T01:06:52;5.75;;;2.28;;
22219;SDS011;11279;48.364;10.904;2023-11-19T01:07:54;5.47;;;2.20;;
22219;SDS011;11279;48.364;10.904;2023-11-19T01:08:55;3.07;;;2.10;;
22219;SDS011;11279;48.364;10.904;2023-11-19T01:09:56;2.95;;;2.20;;
22219;SDS011;11279;48.364;10.904;2023-11-19T01:10:57;3.77;;;2.17;;
22219;SDS011;11279;48.364;10.904;2023-11-19T01:11:58;2.40;;;1.80;;
22219;SDS011;11279;48.364;10.904;2023-11-19T01:13:00;4.78;;;2.15;;
22219;SDS011;11279;48.364;10.904;2023-11-19T01:14:01;2.93;;;1.90;;
22219;SDS011;11279;48.364;10.904;2023-11-19T01:15:01;3.80;;;1.90;;
22219;SDS011;11279;48.364;10.904;2023-11-19T01:16:02;2.73;;;1.90;;
22219;SDS011;11279;48.364;10.904;2023-11-19T01:17:02;3.17;;;1.87;;
22219;SDS011;11279;48.364;10.904;2023-11-19T01:18:04;2.85;;;1.90;;
22219;SDS011;11279;48.364;10.904;2023-11-19T01:19:05;2.93;;;1.80;;
22219;SDS011;11279;48.364;10.904;2023-11-19T01:20:05;5.23;;;2.10;;
22219;SDS011;11279;48.364;10.904;2023-11-19T01:21:06;4.93;;;1.87;;
22219;SDS011;11279;48.364;10.904;2023-11-19T01:22:07;2.60;;;1.80;;
22219;SDS011;11279;48.364;10.904;2023-11-19T01:23:07;3.40;;;1.90;;
22219;SDS011;11279;48.364;10.904;2023-11-19T01:24:08;2.23;;;1.67;;
22219;SDS011;11279;48.364;10.904;2023-11-19T01:25:09;2.78;;;1.80;;
22219;SDS011;11279;48.364;10.904;2023-11-19T01:26:10;1.67;;;1.50;;
22219;SDS011;11279;48.364;10.904;2023-11-19T01:27:12;4.18;;;1.95;;
22219;SDS011;11279;48.364;10.904;2023-11-19T01:28:12;3.60;;;1.77;;
22219;SDS011;11279;48.364;10.904;2023-11-19T01:29:13;2.10;;;1.60;;
22219;SDS011;11279;48.364;10.904;2023-11-19T01:30:14;3.00;;;1.73;;
22219;SDS011;11279;48.364;10.904;2023-11-19T01:31:14;2.13;;;1.80;;
22219;SDS011;11279;48.364;10.904;2023-11-19T01:32:15;2.85;;;1.50;;
22219;SDS011;11279;48.364;10.904;2023-11-19T01:33:16;3.40;;;1.87;;
22219;SDS011;11279;48.364;10.904;2023-11-19T01:34:16;3.13;;;1.87;;
22219;SDS011;11279;48.364;10.904;2023-11-19T01:35:17;3.60;;;1.50;;
22219;SDS011;11279;48.364;10.904;2023-11-19T01:36:17;2.50;;;1.50;;
22219;SDS011;11279;48.364;10.904;2023-11-19T01:37:17;2.13;;;1.60;;
22219;SDS011;11279;48.364;10.904;2023-11-19T01:38:18;2.87;;;1.70;;
22219;SDS011;11279;48.364;10.904;2023-11-19T01:39:18;2.03;;;1.60;;
22219;SDS011;11279;48.364;10.904;2023-11-19T01:40:20;2.38;;;1.70;;
22219;SDS011;11279;48.364;10.904;2023-11-19T01:41:21;1.95;;;1.67;;
22219;SDS011;11279;48.364;10.904;2023-11-19T01:42:22;2.30;;;1.57;;
22219;SDS011;11279;48.364;10.904;2023-11-19T01:43:34;2.40;;;1.60;;
22219;SDS011;11279;48.364;10.904;2023-11-19T01:44:36;2.28;;;1.67;;
22219;SDS011;11279;48.364;10.904;2023-11-19T01:45:36;1.83;;;1.47;;
22219;SDS011;11279;48.364;10.904;2023-11-19T01:46:37;2.83;;;1.77;;
22219;SDS011;11279;48.364;10.904;2023-11-19T01:47:39;3.97;;;1.70;;
22219;SDS011;11279;48.364;10.904;2023-11-19T01:48:41;2.33;;;1.45;;
22219;SDS011;11279;48.364;10.904;2023-11-19T01:49:42;2.72;;;1.70;;
22219;SDS011;11279;48.364;10.904;2023-11-19T01:50:43;2.27;;;1.50;;
22219;SDS011;11279;48.364;10.904;2023-11-19T01:51:44;1.40;;;1.30;;
22219;SDS011;11279;48.364;10.904;2023-11-19T01:52:45;3.45;;;1.60;;
22219;SDS011;11279;48.364;10.904;2023-11-19T01:53:46;2.00;;;1.70;;
22219;SDS011;11279;48.364;10.904;2023-11-19T01:54:47;2.87;;;1.70;;
22219;SDS011;11279;48.364;10.904;2023-11-19T01:55:47;2.43;;;1.83;;
22219;SDS011;11279;48.364;10.904;2023-11-19T01:56:48;4.50;;;1.50;;
22219;SDS011;11279;48.364;10.904;2023-11-19T01:57:49;3.50;;;1.77;;
22219;SDS011;11279;48.364;10.904;2023-11-19T01:58:49;1.83;;;1.60;;
22219;SDS011;11279;48.364;10.904;2023-11-19T01:59:51;2.10;;;1.50;;
22219;SDS011;11279;48.364;10.904;2023-11-19T02:00:52;2.28;;;1.60;;
22219;SDS011;11279;48.364;10.904;2023-11-19T02:01:53;2.60;;;1.60;;
22219;SDS011;11279;48.364;10.904;2023-11-19T02:02:54;2.00;;;1.60;;
22219;SDS011;11279;48.364;10.904;2023-11-19T02:03:55;3.28;;;1.63;;
22219;SDS011;11279;48.364;10.904;2023-11-19T02:04:58;6.78;;;1.80;;
22219;SDS011;11279;48.364;10.904;2023-11-19T02:05:59;3.47;;;1.67;;
22219;SDS011;11279;48.364;10.904;2023-11-19T02:07:00;1.63;;;1.48;;
22219;SDS011;11279;48.364;10.904;2023-11-19T02:08:01;4.20;;;1.47;;
22219;SDS011;11279;48.364;10.904;2023-11-19T02:09:01;2.00;;;1.50;;
22219;SDS011;11279;48.364;10.904;2023-11-19T02:10:07;3.22;;;1.80;;
22219;SDS011;11279;48.364;10.904;2023-11-19T02:11:12;2.85;;;1.90;;
22219;SDS011;11279;48.364;10.904;2023-11-19T02:12:13;2.20;;;1.70;;
22219;SDS011;11279;48.364;10.904;2023-11-19T02:13:13;4.00;;;1.60;;
22219;SDS011;11279;48.364;10.904;2023-11-19T02:14:14;2.47;;;1.80;;
22219;SDS011;11279;48.364;10.904;2023-11-19T02:15:16;3.38;;;1.92;;
22219;SDS011;11279;48.364;10.904;2023-11-19T02:16:19;2.33;;;1.80;;
22219;SDS011;11279;48.364;10.904;2023-11-19T02:17:28;2.90;;;1.63;;
22219;SDS011;11279;48.364;10.904;2023-11-19T02:18:34;2.83;;;1.60;;
22219;SDS011;11279;48.364;10.904;2023-11-19T02:19:34;2.20;;;1.90;;
22219;SDS011;11279;48.364;10.904;2023-11-19T02:20:35;3.43;;;1.57;;
22219;SDS011;11279;48.364;10.904;2023-11-19T02:21:35;2.47;;;1.83;;
22219;SDS011;11279;48.364;10.904;2023-11-19T02:22:36;4.87;;;1.80;;
22219;SDS011;11279;48.364;10.904;2023-11-19T02:23:36;2.57;;;1.80;;
22219;SDS011;11279;48.364;10.904;2023-11-19T02:24:37;2.70;;;2.00;;
22219;SDS011;11279;48.364;10.904;2023-11-19T02:25:38;3.17;;;2.00;;
22219;SDS011;11279;48.364;10.904;2023-11-19T02:26:40;2.67;;;2.25;;
22219;SDS011;11279;48.364;10.904;2023-11-19T02:27:46;2.53;;;1.98;;
22219;SDS011;11279;48.364;10.904;2023-11-19T02:28:49;3.53;;;2.17;;
22219;SDS011;11279;48.364;10.904;2023-11-19T02:29:50;2.78;;;2.08;;
22219;SDS011;11279;48.364;10.904;2023-11-19T02:30:50;3.93;;;2.23;;
22219;SDS011;11279;48.364;10.904;2023-11-19T02:31:50;2.50;;;1.80;;
22219;SDS011;11279;48.364;10.904;2023-11-19T02:32:51;3.03;;;1.87;;
22219;SDS011;11279;48.364;10.904;2023-11-19T02:33:57;5.10;;;2.30;;
22219;SDS011;11279;48.364;10.904;2023-11-19T02:35:00;2.90;;;2.03;;
22219;SDS011;11279;48.364;10.904;2023-11-19T02:36:00;2.97;;;1.90;;
22219;SDS011;11279;48.364;10.904;2023-11-19T02:37:02;2.53;;;1.83;;
22219;SDS011;11279;48.364;10.904;2023-11-19T02:38:02;3.37;;;1.93;;
22219;SDS011;11279;48.364;10.904;2023-11-19T02:39:07;2.13;;;1.92;;
22219;SDS011;11279;48.364;10.904;2023-11-19T02:40:11;2.45;;;1.98;;
22219;SDS011;11279;48.364;10.904;2023-11-19T02:41:11;2.70;;;2.20;;
22219;SDS011;11279;48.364;10.904;2023-11-19T02:42:12;3.10;;;1.90;;
22219;SDS011;11279;48.364;10.904;2023-11-19T02:43:13;2.63;;;2.20;;
22219;SDS011;11279;48.364;10.904;2023-11-19T02:44:14;3.40;;;2.20;;
22219;SDS011;11279;48.364;10.904;2023-11-19T02:45:14;3.67;;;2.00;;
22219;SDS011;11279;48.364;10.904;2023-11-19T02:46:14;3.40;;;2.13;;
22219;SDS011;11279;48.364;10.904;2023-11-19T02:47:17;2.38;;;2.00;;
22219;SDS011;11279;48.364;10.904;2023-11-19T02:48:21;2.95;;;2.10;;
22219;SDS011;11279;48.364;10.904;2023-11-19T02:49:22;3.53;;;2.30;;
22219;SDS011;11279;48.364;10.904;2023-11-19T02:50:22;3.10;;;2.10;;
22219;SDS011;11279;48.364;10.904;2023-11-19T02:51:25;4.30;;;2.60;;
22219;SDS011;11279;48.364;10.904;2023-11-19T02:52:27;3.72;;;2.30;;
22219;SDS011;11279;48.364;10.904;2023-11-19T02:53:28;3.23;;;2.30;;
22219;SDS011;11279;48.364;10.904;2023-11-19T02:54:29;2.47;;;2.10;;
22219;SDS011;11279;48.364;10.904;2023-11-19T02:55:29;2.10;;;1.90;;
22219;SDS011;11279;48.364;10.904;2023-11-19T02:56:36;2.95;;;2.20;;
22219;SDS011;11279;48.364;10.904;2023-11-19T02:57:39;3.63;;;2.22;;
22219;SDS011;11279;48.364;10.904;2023-11-19T02:58:46;4.40;;;2.30;;
22219;SDS011;11279;48.364;10.904;2023-11-19T02:59:47;3.15;;;2.45;;
22219;SDS011;11279;48.364;10.904;2023-11-19T03:00:48;2.78;;;2.00;;
22219;SDS011;11279;48.364;10.904;2023-11-19T03:01:57;2.60;;;2.03;;
22219;SDS011;11279;48.364;10.904;2023-11-19T03:02:59;2.47;;;2.10;;
22219;SDS011;11279;48.364;10.904;2023-11-19T03:04:05;4.60;;;2.35;;
22219;SDS011;11279;48.364;10.904;2023-11-19T03:05:06;4.10;;;2.10;;
22219;SDS011;11279;48.364;10.904;2023-11-19T03:06:07;2.00;;;1.80;;
22219;SDS011;11279;48.364;10.904;2023-11-19T03:07:09;2.85;;;1.88;;
22219;SDS011;11279;48.364;10.904;2023-11-19T03:08:09;3.80;;;2.10;;
22219;SDS011;11279;48.364;10.904;2023-11-19T03:09:10;3.30;;;2.07;;
22219;SDS011;11279;48.364;10.904;2023-11-19T03:10:10;2.20;;;2.00;;
22219;SDS011;11279;48.364;10.904;2023-11-19T03:11:14;2.13;;;1.88;;
22219;SDS011;11279;48.364;10.904;2023-11-19T03:12:15;3.20;;;2.10;;
22219;SDS011;11279;48.364;10.904;2023-11-19T03:13:15;2.20;;;1.93;;
22219;SDS011;11279;48.364;10.904;2023-11-19T03:14:17;2.80;;;2.10;;
22219;SDS011;11279;48.364;10.904;2023-11-19T03:15:18;3.63;;;2.00;;
22219;SDS011;11279;48.364;10.904;2023-11-19T03:16:19;4.07;;;2.10;;
22219;SDS011;11279;48.364;10.904;2023-11-19T03:17:19;2.90;;;1.80;;
22219;SDS011;11279;48.364;10.904;2023-11-19T03:18:20;2.67;;;1.87;;
22219;SDS011;11279;48.364;10.904;2023-11-19T03:19:20;3.80;;;2.03;;
22219;SDS011;11279;48.364;10.904;2023-11-19T03:20:21;2.77;;;1.93;;
22219;SDS011;11279;48.364;10.904;2023-11-19T03:21:29;2.55;;;1.90;;
22219;SDS011;11279;48.364;10.904;2023-11-19T03:22:30;3.67;;;2.25;;
22219;SDS011;11279;48.364;10.904;2023-11-19T03:23:30;2.90;;;1.80;;
22219;SDS011;11279;48.364;10.904;2023-11-19T03:24:31;2.10;;;1.90;;
22219;SDS011;11279;48.364;10.904;2023-11-19T03:25:32;2.22;;;1.80;;
22219;SDS011;11279;48.364;10.904;2023-11-19T03:26:36;5.43;;;1.85;;
22219;SDS011;11279;48.364;10.904;2023-11-19T03:27:37;1.80;;;1.70;;
22219;SDS011;11279;48.364;10.904;2023-11-19T03:28:44;2.47;;;1.70;;
22219;SDS011;11279;48.364;10.904;2023-11-19T03:29:44;2.83;;;1.70;;
22219;SDS011;11279;48.364;10.904;2023-11-19T03:30:45;3.30;;;2.03;;
22219;SDS011;11279;48.364;10.904;2023-11-19T03:31:45;2.93;;;1.73;;
22219;SDS011;11279;48.364;10.904;2023-11-19T03:32:46;3.40;;;2.00;;
22219;SDS011;11279;48.364;10.904;2023-11-19T03:33:46;3.13;;;2.10;;
22219;SDS011;11279;48.364;10.904;2023-11-19T03:34:46;2.73;;;1.87;;
22219;SDS011;11279;48.364;10.904;2023-11-19T03:35:47;2.53;;;2.00;;
22219;SDS011;11279;48.364;10.904;2023-11-19T03:36:47;2.03;;;1.77;;
22219;SDS011;11279;48.364;10.904;2023-11-19T03:37:49;2.63;;;2.00;;
22219;SDS011;11279;48.364;10.904;2023-11-19T03:38:50;2.45;;;1.95;;
22219;SDS011;11279;48.364;10.904;2023-11-19T03:39:56;3.10;;;2.20;;
22219;SDS011;11279;48.364;10.904;2023-11-19T03:40:59;2.63;;;1.80;;
22219;SDS011;11279;48.364;10.904;2023-11-19T03:42:00;2.87;;;1.80;;
22219;SDS011;11279;48.364;10.904;2023-11-19T03:43:00;2.40;;;2.00;;
22219;SDS011;11279;48.364;10.904;2023-11-19T03:44:01;3.23;;;2.10;;
22219;SDS011;11279;48.364;10.904;2023-11-19T03:45:01;3.37;;;2.30;;
22219;SDS011;11279;48.364;10.904;2023-11-19T03:46:04;3.78;;;2.10;;
22219;SDS011;11279;48.364;10.904;2023-11-19T03:47:05;6.07;;;1.80;;
22219;SDS011;11279;48.364;10.904;2023-11-19T03:48:06;2.47;;;2.00;;
22219;SDS011;11279;48.364;10.904;2023-11-19T03:49:06;2.33;;;2.03;;
22219;SDS011;11279;48.364;10.904;2023-11-19T03:50:07;2.20;;;2.00;;
22219;SDS011;11279;48.364;10.904;2023-11-19T03:51:10;2.78;;;2.20;;
22219;SDS011;11279;48.364;10.904;2023-11-19T03:52:15;2.75;;;2.20;;
22219;SDS011;11279;48.364;10.904;2023-11-19T03:53:16;2.40;;;2.10;;
22219;SDS011;11279;48.364;10.904;2023-11-19T03:54:16;3.40;;;1.97;;
22219;SDS011;11279;48.364;10.904;2023-11-19T03:55:17;3.30;;;2.20;;
22219;SDS011;11279;48.364;10.904;2023-11-19T03:56:17;2.67;;;1.90;;
22219;SDS011;11279;48.364;10.904;2023-11-19T03:57:18;2.13;;;1.90;;
22219;SDS011;11279;48.364;10.904;2023-11-19T03:58:18;2.23;;;2.00;;
22219;SDS011;11279;48.364;10.904;2023-11-19T03:59:19;3.77;;;2.50;;
22219;SDS011;11279;48.364;10.904;2023-11-19T04:00:20;3.47;;;2.30;;
22219;SDS011;11279;48.364;10.904;2023-11-19T04:01:21;3.93;;;2.23;;
22219;SDS011;11279;48.364;10.904;2023-11-19T04:02:21;3.70;;;2.30;;
22219;SDS011;11279;48.364;10.904;2023-11-19T04:03:22;3.60;;;2.53;;
22219;SDS011;11279;48.364;10.904;2023-11-19T04:04:22;3.13;;;2.50;;
22219;SDS011;11279;48.364;10.904;2023-11-19T04:05:22;3.20;;;2.33;;
22219;SDS011;11279;48.364;10.904;2023-11-19T04:06:23;2.70;;;2.20;;
22219;SDS011;11279;48.364;10.904;2023-11-19T04:07:23;2.97;;;2.23;;
22219;SDS011;11279;48.364;10.904;2023-11-19T04:08:24;3.73;;;2.20;;
22219;SDS011;11279;48.364;10.904;2023-11-19T04:09:24;3.73;;;2.53;;
22219;SDS011;11279;48.364;10.904;2023-11-19T04:10:25;2.97;;;2.40;;
22219;SDS011;11279;48.364;10.904;2023-11-19T04:11:25;2.97;;;2.37;;
22219;SDS011;11279;48.364;10.904;2023-11-19T04:12:25;2.37;;;1.97;;
22219;SDS011;11279;48.364;10.904;2023-11-19T04:13:26;3.30;;;2.37;;
22219;SDS011;11279;48.364;10.904;2023-11-19T04:14:27;3.70;;;2.40;;
22219;SDS011;11279;48.364;10.904;2023-11-19T04:15:27;3.03;;;2.33;;
22219;SDS011;11279;48.364;10.904;2023-11-19T04:16:28;4.83;;;2.40;;
22219;SDS011;11279;48.364;10.904;2023-11-19T04:17:29;4.30;;;2.67;;
22219;SDS011;11279;48.364;10.904;2023-11-19T04:18:29;3.43;;;2.30;;
22219;SDS011;11279;48.364;10.904;2023-11-19T04:19:29;2.60;;;2.40;;
22219;SDS011;11279;48.364;10.904;2023-11-19T04:20:32;3.25;;;2.30;;
22219;SDS011;11279;48.364;10.904;2023-11-19T04:21:33;2.27;;;2.07;;
22219;SDS011;11279;48.364;10.904;2023-11-19T04:22:33;4.03;;;2.40;;
22219;SDS011;11279;48.364;10.904;2023-11-19T04:23:34;2.90;;;2.13;;
22219;SDS011;11279;48.364;10.904;2023-11-19T04:24:34;3.00;;;2.37;;
22219;SDS011;11279;48.364;10.904;2023-11-19T04:25:35;2.97;;;2.17;;
22219;SDS011;11279;48.364;10.904;2023-11-19T04:26:36;3.60;;;2.50;;
22219;SDS011;11279;48.364;10.904;2023-11-19T04:27:46;4.53;;;2.70;;
22219;SDS011;11279;48.364;10.904;2023-11-19T04:28:47;3.08;;;2.35;;
22219;SDS011;11279;48.364;10.904;2023-11-19T04:29:49;2.97;;;2.38;;
22219;SDS011;11279;48.364;10.904;2023-11-19T04:30:50;3.58;;;2.55;;
22219;SDS011;11279;48.364;10.904;2023-11-19T04:31:51;3.33;;;2.23;;
22219;SDS011;11279;48.364;10.904;2023-11-19T04:32:51;2.70;;;2.27;;
22219;SDS011;11279;48.364;10.904;2023-11-19T04:33:52;4.30;;;2.57;;
22219;SDS011;11279;48.364;10.904;2023-11-19T04:34:54;3.13;;;2.40;;
22219;SDS011;11279;48.364;10.904;2023-11-19T04:35:56;4.35;;;2.58;;
22219;SDS011;11279;48.364;10.904;2023-11-19T04:36:56;3.47;;;2.50;;
22219;SDS011;11279;48.364;10.904;2023-11-19T04:37:57;3.20;;;2.50;;
22219;SDS011;11279;48.364;10.904;2023-11-19T04:38:57;4.43;;;3.10;;
22219;SDS011;11279;48.364;10.904;2023-11-19T04:39:59;3.55;;;2.67;;
22219;SDS011;11279;48.364;10.904;2023-11-19T04:41:00;4.27;;;2.23;;
22219;SDS011;11279;48.364;10.904;2023-11-19T04:42:00;2.50;;;2.17;;
22219;SDS011;11279;48.364;10.904;2023-11-19T04:43:01;4.17;;;2.27;;
22219;SDS011;11279;48.364;10.904;2023-11-19T04:44:01;4.50;;;2.63;;
22219;SDS011;11279;48.364;10.904;2023-11-19T04:45:02;3.53;;;2.50;;
22219;SDS011;11279;48.364;10.904;2023-11-19T04:46:06;3.40;;;2.70;;
22219;SDS011;11279;48.364;10.904;2023-11-19T04:47:06;3.13;;;2.60;;
22219;SDS011;11279;48.364;10.904;2023-11-19T04:48:07;2.60;;;2.30;;
22219;SDS011;11279;48.364;10.904;2023-11-19T04:49:09;3.80;;;2.50;;
22219;SDS011;11279;48.364;10.904;2023-11-19T04:50:10;3.00;;;2.40;;
22219;SDS011;11279;48.364;10.904;2023-11-19T04:51:11;4.07;;;2.40;;
22219;SDS011;11279;48.364;10.904;2023-11-19T04:52:11;4.90;;;2.80;;
22219;SDS011;11279;48.364;10.904;2023-11-19T04:53:12;3.97;;;2.47;;
22219;SDS011;11279;48.364;10.904;2023-11-19T04:54:12;5.03;;;2.40;;
22219;SDS011;11279;48.364;10.904;2023-11-19T04:55:13;3.87;;;2.60;;
22219;SDS011;11279;48.364;10.904;2023-11-19T04:56:14;3.42;;;2.40;;
22219;SDS011;11279;48.364;10.904;2023-11-19T04:57:16;4.20;;;2.60;;
22219;SDS011;11279;48.364;10.904;2023-11-19T04:58:17;4.53;;;3.07;;
22219;SDS011;11279;48.364;10.904;2023-11-19T04:59:17;4.13;;;3.17;;
22219;SDS011;11279;48.364;10.904;2023-11-19T05:00:18;3.50;;;2.50;;
22219;SDS011;11279;48.364;10.904;2023-11-19T05:01:18;3.30;;;2.50;;
22219;SDS011;11279;48.364;10.904;2023-11-19T05:02:19;5.73;;;2.67;;
22219;SDS011;11279;48.364;10.904;2023-11-19T05:03:19;4.00;;;2.40;;
22219;SDS011;11279;48.364;10.904;2023-11-19T05:04:19;3.27;;;2.40;;
22219;SDS011;11279;48.364;10.904;2023-11-19T05:05:20;3.17;;;2.30;;
22219;SDS011;11279;48.364;10.904;2023-11-19T05:06:20;2.90;;;2.40;;
22219;SDS011;11279;48.364;10.904;2023-11-19T05:07:21;3.50;;;2.53;;
22219;SDS011;11279;48.364;10.904;2023-11-19T05:08:21;2.73;;;2.40;;
22219;SDS011;11279;48.364;10.904;2023-11-19T05:09:22;5.57;;;2.30;;
22219;SDS011;11279;48.364;10.904;2023-11-19T05:10:22;3.30;;;2.20;;
22219;SDS011;11279;48.364;10.904;2023-11-19T05:11:22;3.43;;;2.30;;
22219;SDS011;11279;48.364;10.904;2023-11-19T05:12:23;4.57;;;2.40;;
22219;SDS011;11279;48.364;10.904;2023-11-19T05:13:24;2.83;;;2.47;;
22219;SDS011;11279;48.364;10.904;2023-11-19T05:14:24;4.27;;;2.50;;
22219;SDS011;11279;48.364;10.904;2023-11-19T05:15:25;3.50;;;2.23;;
22219;SDS011;11279;48.364;10.904;2023-11-19T05:16:25;4.57;;;2.23;;
22219;SDS011;11279;48.364;10.904;2023-11-19T05:17:26;2.23;;;2.00;;
22219;SDS011;11279;48.364;10.904;2023-11-19T05:18:26;2.50;;;2.20;;
22219;SDS011;11279;48.364;10.904;2023-11-19T05:19:27;3.97;;;2.37;;
22219;SDS011;11279;48.364;10.904;2023-11-19T05:20:27;3.83;;;2.40;;
22219;SDS011;11279;48.364;10.904;2023-11-19T05:21:28;2.83;;;2.10;;
22219;SDS011;11279;48.364;10.904;2023-11-19T05:22:29;2.33;;;2.00;;
22219;SDS011;11279;48.364;10.904;2023-11-19T05:23:29;3.00;;;2.00;;
22219;SDS011;11279;48.364;10.904;2023-11-19T05:24:31;3.47;;;2.00;;
22219;SDS011;11279;48.364;10.904;2023-11-19T05:25:31;2.40;;;2.20;;
22219;SDS011;11279;48.364;10.904;2023-11-19T05:26:32;3.57;;;2.40;;
22219;SDS011;11279;48.364;10.904;2023-11-19T05:27:32;2.73;;;2.00;;
22219;SDS011;11279;48.364;10.904;2023-11-19T05:28:33;3.63;;;2.10;;
22219;SDS011;11279;48.364;10.904;2023-11-19T05:29:33;2.73;;;2.10;;
22219;SDS011;11279;48.364;10.904;2023-11-19T05:30:34;4.43;;;2.33;;
22219;SDS011;11279;48.364;10.904;2023-11-19T05:31:34;2.30;;;2.00;;
22219;SDS011;11279;48.364;10.904;2023-11-19T05:32:35;2.20;;;2.00;;
22219;SDS011;11279;48.364;10.904;2023-11-19T05:33:35;3.00;;;2.30;;
22219;SDS011;11279;48.364;10.904;2023-11-19T05:34:36;4.22;;;2.50;;
22219;SDS011;11279;48.364;10.904;2023-11-19T05:35:37;4.47;;;2.30;;
22219;SDS011;11279;48.364;10.904;2023-11-19T05:36:37;2.80;;;2.33;;
22219;SDS011;11279;48.364;10.904;2023-11-19T05:37:39;3.45;;;2.55;;
22219;SDS011;11279;48.364;10.904;2023-11-19T05:38:40;3.00;;;2.10;;
22219;SDS011;11279;48.364;10.904;2023-11-19T05:39:40;3.83;;;2.40;;
22219;SDS011;11279;48.364;10.904;2023-11-19T05:40:41;3.70;;;2.53;;
22219;SDS011;11279;48.364;10.904;2023-11-19T05:41:42;2.93;;;2.50;;
22219;SDS011;11279;48.364;10.904;2023-11-19T05:42:42;3.80;;;2.63;;
22219;SDS011;11279;48.364;10.904;2023-11-19T05:43:43;4.90;;;2.83;;
22219;SDS011;11279;48.364;10.904;2023-11-19T05:44:43;3.63;;;2.50;;
22219;SDS011;11279;48.364;10.904;2023-11-19T05:45:43;2.67;;;2.30;;
22219;SDS011;11279;48.364;10.904;2023-11-19T05:46:44;3.37;;;2.23;;
22219;SDS011;11279;48.364;10.904;2023-11-19T05:47:44;3.57;;;2.50;;
22219;SDS011;11279;48.364;10.904;2023-11-19T05:48:45;5.67;;;2.63;;
22219;SDS011;11279;48.364;10.904;2023-11-19T05:49:46;5.05;;;2.90;;
22219;SDS011;11279;48.364;10.904;2023-11-19T05:50:47;3.80;;;2.70;;
22219;SDS011;11279;48.364;10.904;2023-11-19T05:51:49;3.20;;;2.58;;
22219;SDS011;11279;48.364;10.904;2023-11-19T05:52:50;4.33;;;2.73;;
22219;SDS011;11279;48.364;10.904;2023-11-19T05:53:52;3.35;;;2.58;;
22219;SDS011;11279;48.364;10.904;2023-11-19T05:54:55;3.35;;;2.55;;
22219;SDS011;11279;48.364;10.904;2023-11-19T05:55:56;4.40;;;2.67;;
22219;SDS011;11279;48.364;10.904;2023-11-19T05:56:57;3.05;;;2.20;;
22219;SDS011;11279;48.364;10.904;2023-11-19T05:57:57;3.60;;;2.67;;
22219;SDS011;11279;48.364;10.904;2023-11-19T05:58:58;5.07;;;2.90;;
22219;SDS011;11279;48.364;10.904;2023-11-19T06:00:03;3.00;;;2.45;;
22219;SDS011;11279;48.364;10.904;2023-11-19T06:01:08;5.03;;;2.47;;
22219;SDS011;11279;48.364;10.904;2023-11-19T06:02:08;4.40;;;2.60;;
22219;SDS011;11279;48.364;10.904;2023-11-19T06:03:09;3.57;;;2.70;;